sensor_id;sensor_type;location;lat;lon;timestamp;pressure;altitude;pressure_sealevel;temperature;humidity
70217;BME280;65567;55.684;37.570;2023-05-14T00:00:51;99735.47;;;16.99;36.92
70217;BME280;65567;55.684;37.570;2023-05-14T00:03:17;99743.94;;;16.92;37.14
70217;BME280;65567;55.684;37.570;2023-05-14T00:05:43;99743.28;;;16.88;37.51
70217;BME280;65567;55.684;37.570;2023-05-14T00:08:08;99744.53;;;16.82;37.63
70217;BME280;65567;55.684;37.570;2023-05-14T00:10:34;99736.94;;;16.78;37.64
70217;BME280;65567;55.684;37.570;2023-05-14T00:13:00;99739.47;;;16.79;37.78
70217;BME280;65567;55.684;37.570;2023-05-14T00:15:26;99742.53;;;16.73;37.83
70217;BME280;65567;55.684;37.570;2023-05-14T00:17:52;99738.19;;;16.72;37.68
70217;BME280;65567;55.684;37.570;2023-05-14T00:20:17;99740.09;;;16.70;37.72
70217;BME280;65567;55.684;37.570;2023-05-14T00:22:43;99745.81;;;16.64;37.93
70217;BME280;65567;55.684;37.570;2023-05-14T00:25:09;99742.09;;;16.54;38.13
70217;BME280;65567;55.684;37.570;2023-05-14T00:27:35;99739.31;;;16.42;38.21
70217;BME280;65567;55.684;37.570;2023-05-14T00:30:04;99748.22;;;16.41;38.72
70217;BME280;65567;55.684;37.570;2023-05-14T00:32:31;99745.34;;;16.44;38.37
70217;BME280;65567;55.684;37.570;2023-05-14T00:34:57;99747.78;;;16.47;38.30
70217;BME280;65567;55.684;37.570;2023-05-14T00:37:22;99750.44;;;16.47;38.46
70217;BME280;65567;55.684;37.570;2023-05-14T00:39:48;99747.06;;;16.45;38.41
70217;BME280;65567;55.684;37.570;2023-05-14T00:42:14;99749.88;;;16.42;38.72
70217;BME280;65567;55.684;37.570;2023-05-14T00:44:39;99738.16;;;16.33;38.80
70217;BME280;65567;55.684;37.570;2023-05-14T00:47:06;99751.88;;;16.26;39.06
70217;BME280;65567;55.684;37.570;2023-05-14T00:49:33;99744.88;;;16.25;39.11
70217;BME280;65567;55.684;37.570;2023-05-14T00:51:58;99751.34;;;16.21;39.33
70217;BME280;65567;55.684;37.570;2023-05-14T00:54:25;99759.16;;;16.22;39.36
70217;BME280;65567;55.684;37.570;2023-05-14T00:56:51;99757.56;;;16.19;39.49
70217;BME280;65567;55.684;37.570;2023-05-14T00:59:17;99754.16;;;16.17;39.50
70217;BME280;65567;55.684;37.570;2023-05-14T01:01:43;99751.72;;;16.14;39.42
70217;BME280;65567;55.684;37.570;2023-05-14T01:04:09;99760.31;;;16.18;39.42
70217;BME280;65567;55.684;37.570;2023-05-14T01:12:18;99759.03;;;16.24;39.33
70217;BME280;65567;55.684;37.570;2023-05-14T01:14:54;99756.69;;;16.19;39.54
70217;BME280;65567;55.684;37.570;2023-05-14T01:17:21;99759.00;;;16.11;39.66
70217;BME280;65567;55.684;37.570;2023-05-14T01:19:50;99762.50;;;16.11;39.87
70217;BME280;65567;55.684;37.570;2023-05-14T01:22:16;99753.31;;;16.17;39.71
70217;BME280;65567;55.684;37.570;2023-05-14T01:24:42;99761.91;;;16.21;39.65
70217;BME280;65567;55.684;37.570;2023-05-14T01:30:13;99761.81;;;16.22;39.55
70217;BME280;65567;55.684;37.570;2023-05-14T01:32:47;99758.00;;;16.26;39.67
70217;BME280;65567;55.684;37.570;2023-05-14T01:35:13;99767.31;;;16.32;39.39
70217;BME280;65567;55.684;37.570;2023-05-14T01:37:39;99764.38;;;16.37;39.54
70217;BME280;65567;55.684;37.570;2023-05-14T01:40:07;99780.28;;;16.49;39.10
70217;BME280;65567;55.684;37.570;2023-05-14T01:42:34;99770.78;;;16.60;39.14
70217;BME280;65567;55.684;37.570;2023-05-14T01:45:00;99773.34;;;16.74;38.87
70217;BME280;65567;55.684;37.570;2023-05-14T01:47:26;99775.88;;;16.89;38.53
70217;BME280;65567;55.684;37.570;2023-05-14T01:49:52;99778.03;;;16.96;38.33
70217;BME280;65567;55.684;37.570;2023-05-14T01:52:18;99780.56;;;17.11;38.03
70217;BME280;65567;55.684;37.570;2023-05-14T01:54:46;99781.41;;;17.24;38.00
70217;BME280;65567;55.684;37.570;2023-05-14T01:57:12;99788.69;;;17.46;37.73
70217;BME280;65567;55.684;37.570;2023-05-14T01:59:38;99782.31;;;17.62;37.16
70217;BME280;65567;55.684;37.570;2023-05-14T02:02:04;99786.19;;;17.82;37.00
70217;BME280;65567;55.684;37.570;2023-05-14T02:04:29;99778.53;;;17.90;36.74
70217;BME280;65567;55.684;37.570;2023-05-14T02:06:55;99781.44;;;18.11;36.33
70217;BME280;65567;55.684;37.570;2023-05-14T02:09:21;99785.41;;;18.30;36.31
70217;BME280;65567;55.684;37.570;2023-05-14T02:11:46;99788.25;;;18.51;35.58
70217;BME280;65567;55.684;37.570;2023-05-14T02:14:12;99795.31;;;18.75;35.46
70217;BME280;65567;55.684;37.570;2023-05-14T02:17:10;99800.59;;;19.10;34.76
70217;BME280;65567;55.684;37.570;2023-05-14T02:19:51;99789.63;;;19.26;34.28
70217;BME280;65567;55.684;37.570;2023-05-14T02:22:17;99787.81;;;19.38;34.20
70217;BME280;65567;55.684;37.570;2023-05-14T02:24:42;99796.88;;;19.47;33.98
70217;BME280;65567;55.684;37.570;2023-05-14T02:27:08;99797.34;;;19.63;33.71
70217;BME280;65567;55.684;37.570;2023-05-14T02:29:34;99795.53;;;19.87;33.28
70217;BME280;65567;55.684;37.570;2023-05-14T02:32:00;99796.94;;;20.13;32.95
70217;BME280;65567;55.684;37.570;2023-05-14T02:34:25;99806.38;;;20.39;32.26
70217;BME280;65567;55.684;37.570;2023-05-14T02:36:51;99813.28;;;20.41;32.30
70217;BME280;65567;55.684;37.570;2023-05-14T02:39:17;99804.78;;;20.47;32.16
70217;BME280;65567;55.684;37.570;2023-05-14T02:41:42;99802.53;;;20.64;31.90
70217;BME280;65567;55.684;37.570;2023-05-14T02:44:08;99807.72;;;20.77;31.86
70217;BME280;65567;55.684;37.570;2023-05-14T02:46:34;99810.47;;;20.75;31.78
70217;BME280;65567;55.684;37.570;2023-05-14T02:48:59;99811.22;;;20.77;31.53
70217;BME280;65567;55.684;37.570;2023-05-14T02:51:26;99812.91;;;20.67;31.49
70217;BME280;65567;55.684;37.570;2023-05-14T02:53:51;99810.63;;;20.30;32.30
70217;BME280;65567;55.684;37.570;2023-05-14T02:56:17;99813.84;;;20.24;32.42
70217;BME280;65567;55.684;37.570;2023-05-14T02:58:43;99821.22;;;20.20;32.55
70217;BME280;65567;55.684;37.570;2023-05-14T03:01:09;99816.06;;;19.96;32.79
70217;BME280;65567;55.684;37.570;2023-05-14T03:03:35;99821.03;;;19.44;33.54
70217;BME280;65567;55.684;37.570;2023-05-14T03:06:03;99836.59;;;19.26;33.99
70217;BME280;65567;55.684;37.570;2023-05-14T03:08:28;99825.72;;;19.40;33.74
70217;BME280;65567;55.684;37.570;2023-05-14T03:10:54;99828.63;;;19.26;33.99
70217;BME280;65567;55.684;37.570;2023-05-14T03:13:20;99830.09;;;19.30;33.83
70217;BME280;65567;55.684;37.570;2023-05-14T03:15:46;99822.59;;;19.46;33.63
70217;BME280;65567;55.684;37.570;2023-05-14T03:18:12;99829.22;;;19.75;33.44
70217;BME280;65567;55.684;37.570;2023-05-14T03:20:38;99817.94;;;20.17;32.66
70217;BME280;65567;55.684;37.570;2023-05-14T03:23:04;99823.25;;;20.28;32.65
70217;BME280;65567;55.684;37.570;2023-05-14T03:25:30;99829.47;;;20.50;32.27
70217;BME280;65567;55.684;37.570;2023-05-14T03:27:56;99833.03;;;20.60;32.13
70217;BME280;65567;55.684;37.570;2023-05-14T03:30:21;99824.72;;;20.86;31.37
70217;BME280;65567;55.684;37.570;2023-05-14T03:32:47;99827.03;;;20.79;31.47
70217;BME280;65567;55.684;37.570;2023-05-14T03:35:13;99833.59;;;20.42;32.10
70217;BME280;65567;55.684;37.570;2023-05-14T03:37:39;99835.78;;;20.37;32.09
70217;BME280;65567;55.684;37.570;2023-05-14T03:40:05;99835.00;;;20.58;31.84
70217;BME280;65567;55.684;37.570;2023-05-14T03:42:31;99840.03;;;20.61;31.73
70217;BME280;65567;55.684;37.570;2023-05-14T03:44:57;99837.19;;;20.53;32.00
70217;BME280;65567;55.684;37.570;2023-05-14T03:47:22;99837.69;;;20.46;31.94
70217;BME280;65567;55.684;37.570;2023-05-14T03:49:48;99838.41;;;20.49;32.37
70217;BME280;65567;55.684;37.570;2023-05-14T03:52:14;99840.81;;;20.84;31.75
70217;BME280;65567;55.684;37.570;2023-05-14T03:54:40;99834.50;;;21.06;31.44
70217;BME280;65567;55.684;37.570;2023-05-14T03:57:05;99848.16;;;21.34;31.08
70217;BME280;65567;55.684;37.570;2023-05-14T03:59:31;99846.47;;;21.33;30.99
70217;BME280;65567;55.684;37.570;2023-05-14T04:01:57;99846.25;;;21.46;30.80
70217;BME280;65567;55.684;37.570;2023-05-14T04:04:23;99847.69;;;21.91;29.98
70217;BME280;65567;55.684;37.570;2023-05-14T04:06:48;99853.75;;;22.03;29.77
70217;BME280;65567;55.684;37.570;2023-05-14T04:09:14;99853.50;;;22.06;29.83
70217;BME280;65567;55.684;37.570;2023-05-14T04:11:39;99846.63;;;22.03;29.77
70217;BME280;65567;55.684;37.570;2023-05-14T04:14:05;99861.56;;;21.75;29.91
70217;BME280;65567;55.684;37.570;2023-05-14T04:16:31;99852.91;;;21.31;30.33
70217;BME280;65567;55.684;37.570;2023-05-14T04:18:57;99852.66;;;20.91;31.03
70217;BME280;65567;55.684;37.570;2023-05-14T04:21:23;99854.06;;;20.74;31.33
70217;BME280;65567;55.684;37.570;2023-05-14T04:23:48;99849.84;;;20.72;31.76
70217;BME280;65567;55.684;37.570;2023-05-14T04:26:15;99854.91;;;20.96;31.22
70217;BME280;65567;55.684;37.570;2023-05-14T04:28:41;99852.19;;;21.07;31.07
70217;BME280;65567;55.684;37.570;2023-05-14T04:31:07;99850.88;;;21.75;30.34
70217;BME280;65567;55.684;37.570;2023-05-14T04:33:33;99848.47;;;22.13;29.67
70217;BME280;65567;55.684;37.570;2023-05-14T04:35:58;99853.69;;;22.34;29.17
70217;BME280;65567;55.684;37.570;2023-05-14T04:38:24;99847.19;;;22.17;29.33
70217;BME280;65567;55.684;37.570;2023-05-14T04:40:50;99857.34;;;21.72;29.82
70217;BME280;65567;55.684;37.570;2023-05-14T04:43:15;99855.03;;;21.58;30.02
70217;BME280;65567;55.684;37.570;2023-05-14T04:45:41;99862.66;;;21.72;29.82
70217;BME280;65567;55.684;37.570;2023-05-14T04:48:07;99856.78;;;21.48;30.17
70217;BME280;65567;55.684;37.570;2023-05-14T04:50:33;99857.94;;;21.86;29.85
70217;BME280;65567;55.684;37.570;2023-05-14T04:52:59;99860.00;;;22.23;29.36
70217;BME280;65567;55.684;37.570;2023-05-14T04:55:25;99858.38;;;22.41;29.40
70217;BME280;65567;55.684;37.570;2023-05-14T04:57:51;99861.31;;;23.17;28.34
70217;BME280;65567;55.684;37.570;2023-05-14T05:00:17;99859.97;;;23.50;27.78
70217;BME280;65567;55.684;37.570;2023-05-14T05:02:43;99864.56;;;23.58;27.06
70217;BME280;65567;55.684;37.570;2023-05-14T05:05:09;99843.19;;;23.96;26.90
70217;BME280;65567;55.684;37.570;2023-05-14T05:07:35;99852.22;;;24.49;26.15
70217;BME280;65567;55.684;37.570;2023-05-14T05:10:01;99855.84;;;23.94;26.74
70217;BME280;65567;55.684;37.570;2023-05-14T05:12:27;99861.63;;;23.51;27.33
70217;BME280;65567;55.684;37.570;2023-05-14T05:14:57;99860.84;;;24.06;26.81
70217;BME280;65567;55.684;37.570;2023-05-14T05:17:23;99856.28;;;24.17;26.82
70217;BME280;65567;55.684;37.570;2023-05-14T05:19:49;99860.16;;;24.68;26.47
70217;BME280;65567;55.684;37.570;2023-05-14T05:22:15;99862.88;;;25.13;25.61
70217;BME280;65567;55.684;37.570;2023-05-14T05:24:41;99858.09;;;25.51;25.13
70217;BME280;65567;55.684;37.570;2023-05-14T05:27:06;99863.19;;;24.91;25.52
70217;BME280;65567;55.684;37.570;2023-05-14T05:29:34;99861.72;;;24.43;26.17
70217;BME280;65567;55.684;37.570;2023-05-14T05:32:00;99859.66;;;24.55;25.82
70217;BME280;65567;55.684;37.570;2023-05-14T05:34:26;99862.22;;;24.11;26.36
70217;BME280;65567;55.684;37.570;2023-05-14T05:36:52;99860.19;;;24.22;26.18
70217;BME280;65567;55.684;37.570;2023-05-14T05:39:17;99864.25;;;24.45;25.79
70217;BME280;65567;55.684;37.570;2023-05-14T05:41:43;99856.06;;;24.46;25.25
70217;BME280;65567;55.684;37.570;2023-05-14T05:44:09;99850.13;;;24.70;25.04
70217;BME280;65567;55.684;37.570;2023-05-14T05:46:35;99843.78;;;24.71;25.10
70217;BME280;65567;55.684;37.570;2023-05-14T05:49:00;99845.47;;;24.72;24.96
70217;BME280;65567;55.684;37.570;2023-05-14T05:51:26;99848.50;;;24.41;25.46
70217;BME280;65567;55.684;37.570;2023-05-14T05:53:52;99842.19;;;24.15;26.03
70217;BME280;65567;55.684;37.570;2023-05-14T05:56:17;99847.88;;;24.30;25.87
70217;BME280;65567;55.684;37.570;2023-05-14T05:58:43;99841.09;;;24.71;25.07
70217;BME280;65567;55.684;37.570;2023-05-14T06:01:09;99840.59;;;24.94;24.80
70217;BME280;65567;55.684;37.570;2023-05-14T06:03:35;99842.25;;;25.13;24.21
70217;BME280;65567;55.684;37.570;2023-05-14T06:06:00;99834.09;;;24.79;24.30
70217;BME280;65567;55.684;37.570;2023-05-14T06:08:26;99838.47;;;24.44;25.07
70217;BME280;65567;55.684;37.570;2023-05-14T06:10:52;99838.53;;;24.16;25.47
70217;BME280;65567;55.684;37.570;2023-05-14T06:13:17;99837.63;;;24.25;25.01
70217;BME280;65567;55.684;37.570;2023-05-14T06:15:43;99833.41;;;24.22;25.23
70217;BME280;65567;55.684;37.570;2023-05-14T06:18:09;99846.72;;;24.14;25.27
70217;BME280;65567;55.684;37.570;2023-05-14T06:20:34;99836.00;;;24.14;25.31
70217;BME280;65567;55.684;37.570;2023-05-14T06:23:00;99837.41;;;24.36;25.13
70217;BME280;65567;55.684;37.570;2023-05-14T06:25:26;99832.16;;;25.07;24.58
70217;BME280;65567;55.684;37.570;2023-05-14T06:27:52;99838.81;;;25.90;23.63
70217;BME280;65567;55.684;37.570;2023-05-14T06:30:17;99830.16;;;26.04;22.80
70217;BME280;65567;55.684;37.570;2023-05-14T06:32:43;99831.47;;;25.58;23.45
70217;BME280;65567;55.684;37.570;2023-05-14T06:35:09;99835.19;;;25.12;23.92
70217;BME280;65567;55.684;37.570;2023-05-14T06:37:35;99833.00;;;25.07;23.91
70217;BME280;65567;55.684;37.570;2023-05-14T06:40:01;99833.22;;;25.40;24.16
70217;BME280;65567;55.684;37.570;2023-05-14T06:42:26;99833.13;;;25.50;23.70
70217;BME280;65567;55.684;37.570;2023-05-14T06:44:52;99835.84;;;25.59;22.39
70217;BME280;65567;55.684;37.570;2023-05-14T06:47:18;99837.97;;;25.47;22.64
70217;BME280;65567;55.684;37.570;2023-05-14T06:49:44;99838.78;;;25.21;22.74
70217;BME280;65567;55.684;37.570;2023-05-14T06:52:10;99834.56;;;24.20;23.29
70217;BME280;65567;55.684;37.570;2023-05-14T06:54:36;99840.03;;;23.35;24.58
70217;BME280;65567;55.684;37.570;2023-05-14T06:57:02;99835.25;;;23.19;24.15
70217;BME280;65567;55.684;37.570;2023-05-14T06:59:28;99835.00;;;23.22;24.63
70217;BME280;65567;55.684;37.570;2023-05-14T07:01:53;99837.75;;;23.40;24.39
70217;BME280;65567;55.684;37.570;2023-05-14T07:04:19;99841.63;;;22.98;24.17
70217;BME280;65567;55.684;37.570;2023-05-14T07:06:45;99843.06;;;22.63;24.70
70217;BME280;65567;55.684;37.570;2023-05-14T07:09:11;99844.25;;;22.20;25.47
70217;BME280;65567;55.684;37.570;2023-05-14T07:11:37;99849.94;;;22.56;25.44
70217;BME280;65567;55.684;37.570;2023-05-14T07:14:03;99849.66;;;22.98;25.61
70217;BME280;65567;55.684;37.570;2023-05-14T07:16:29;99856.25;;;23.04;25.07
70217;BME280;65567;55.684;37.570;2023-05-14T07:18:54;99860.44;;;23.06;24.99
70217;BME280;65567;55.684;37.570;2023-05-14T07:21:20;99852.72;;;23.23;24.68
70217;BME280;65567;55.684;37.570;2023-05-14T07:23:46;99853.56;;;23.04;24.68
70217;BME280;65567;55.684;37.570;2023-05-14T07:26:11;99855.00;;;22.49;24.89
70217;BME280;65567;55.684;37.570;2023-05-14T07:28:37;99872.88;;;21.98;25.50
70217;BME280;65567;55.684;37.570;2023-05-14T07:31:03;99864.06;;;21.24;26.29
70217;BME280;65567;55.684;37.570;2023-05-14T07:33:35;99874.06;;;20.90;26.71
70217;BME280;65567;55.684;37.570;2023-05-14T07:36:01;99871.47;;;20.78;27.19
70217;BME280;65567;55.684;37.570;2023-05-14T07:38:27;99861.34;;;20.72;27.30
70217;BME280;65567;55.684;37.570;2023-05-14T07:40:53;99866.75;;;21.03;27.56
70217;BME280;65567;55.684;37.570;2023-05-14T07:43:20;99873.59;;;21.69;26.30
70217;BME280;65567;55.684;37.570;2023-05-14T07:45:46;99870.94;;;22.20;25.99
70217;BME280;65567;55.684;37.570;2023-05-14T07:48:12;99868.22;;;22.60;25.70
70217;BME280;65567;55.684;37.570;2023-05-14T07:50:37;99865.47;;;22.31;25.68
70217;BME280;65567;55.684;37.570;2023-05-14T07:53:03;99864.63;;;22.11;26.05
70217;BME280;65567;55.684;37.570;2023-05-14T07:55:29;99875.72;;;22.26;25.58
70217;BME280;65567;55.684;37.570;2023-05-14T07:57:55;99868.63;;;22.56;25.28
70217;BME280;65567;55.684;37.570;2023-05-14T08:00:20;99868.44;;;22.28;25.50
70217;BME280;65567;55.684;37.570;2023-05-14T08:02:47;99872.16;;;21.65;26.24
70217;BME280;65567;55.684;37.570;2023-05-14T08:05:13;99876.53;;;21.45;26.07
70217;BME280;65567;55.684;37.570;2023-05-14T08:07:39;99874.72;;;21.24;26.60
70217;BME280;65567;55.684;37.570;2023-05-14T08:10:06;99874.34;;;21.08;26.41
70217;BME280;65567;55.684;37.570;2023-05-14T08:12:32;99881.34;;;21.30;25.98
70217;BME280;65567;55.684;37.570;2023-05-14T08:14:58;99880.75;;;21.48;25.81
70217;BME280;65567;55.684;37.570;2023-05-14T08:17:24;99865.50;;;21.07;26.26
70217;BME280;65567;55.684;37.570;2023-05-14T08:19:49;99878.94;;;20.85;26.87
70217;BME280;65567;55.684;37.570;2023-05-14T08:22:15;99884.03;;;20.88;27.04
70217;BME280;65567;55.684;37.570;2023-05-14T08:24:41;99865.84;;;20.93;27.28
70217;BME280;65567;55.684;37.570;2023-05-14T08:27:08;99874.94;;;21.11;27.42
70217;BME280;65567;55.684;37.570;2023-05-14T08:29:34;99880.53;;;21.08;27.28
70217;BME280;65567;55.684;37.570;2023-05-14T08:32:00;99873.44;;;21.19;27.48
70217;BME280;65567;55.684;37.570;2023-05-14T08:34:26;99869.72;;;21.31;27.17
70217;BME280;65567;55.684;37.570;2023-05-14T08:36:52;99877.13;;;21.49;26.95
70217;BME280;65567;55.684;37.570;2023-05-14T08:39:18;99874.38;;;21.60;26.28
70217;BME280;65567;55.684;37.570;2023-05-14T08:41:44;99878.16;;;21.36;26.82
70217;BME280;65567;55.684;37.570;2023-05-14T08:44:13;99869.56;;;21.54;26.88
70217;BME280;65567;55.684;37.570;2023-05-14T08:46:40;99873.69;;;21.58;26.98
70217;BME280;65567;55.684;37.570;2023-05-14T08:51:54;99877.31;;;21.88;26.88
70217;BME280;65567;55.684;37.570;2023-05-14T08:54:20;99865.28;;;22.03;26.81
70217;BME280;65567;55.684;37.570;2023-05-14T08:56:50;99878.81;;;22.21;26.70
70217;BME280;65567;55.684;37.570;2023-05-14T08:59:15;99872.53;;;22.42;26.60
70217;BME280;65567;55.684;37.570;2023-05-14T09:01:46;99864.84;;;22.58;26.21
70217;BME280;65567;55.684;37.570;2023-05-14T09:06:44;99879.75;;;22.81;26.20
70217;BME280;65567;55.684;37.570;2023-05-14T09:09:12;99868.50;;;22.87;25.96
70217;BME280;65567;55.684;37.570;2023-05-14T09:11:42;99868.47;;;23.06;25.66
70217;BME280;65567;55.684;37.570;2023-05-14T09:14:09;99866.13;;;22.84;25.26
70217;BME280;65567;55.684;37.570;2023-05-14T09:16:35;99871.28;;;22.36;26.40
70217;BME280;65567;55.684;37.570;2023-05-14T09:19:03;99868.56;;;22.17;26.40
70217;BME280;65567;55.684;37.570;2023-05-14T09:21:29;99874.28;;;22.02;26.98
70217;BME280;65567;55.684;37.570;2023-05-14T09:23:56;99864.72;;;22.00;26.96
70217;BME280;65567;55.684;37.570;2023-05-14T09:26:26;99859.97;;;22.03;27.28
70217;BME280;65567;55.684;37.570;2023-05-14T09:28:56;99868.13;;;22.11;26.54
70217;BME280;65567;55.684;37.570;2023-05-14T09:31:29;99861.56;;;21.85;26.24
70217;BME280;65567;55.684;37.570;2023-05-14T09:33:56;99868.06;;;21.92;26.59
70217;BME280;65567;55.684;37.570;2023-05-14T09:36:23;99865.88;;;22.17;26.49
70217;BME280;65567;55.684;37.570;2023-05-14T09:38:57;99859.78;;;22.36;25.72
70217;BME280;65567;55.684;37.570;2023-05-14T09:41:23;99856.50;;;22.32;26.30
70217;BME280;65567;55.684;37.570;2023-05-14T09:43:50;99850.50;;;22.50;26.24
70217;BME280;65567;55.684;37.570;2023-05-14T09:46:16;99848.41;;;22.43;25.44
70217;BME280;65567;55.684;37.570;2023-05-14T09:48:42;99864.19;;;22.06;26.09
70217;BME280;65567;55.684;37.570;2023-05-14T09:51:11;99863.25;;;21.86;26.19
70217;BME280;65567;55.684;37.570;2023-05-14T09:53:37;99864.78;;;21.78;26.39
70217;BME280;65567;55.684;37.570;2023-05-14T09:56:04;99855.69;;;21.91;26.07
70217;BME280;65567;55.684;37.570;2023-05-14T09:58:29;99853.84;;;22.32;25.53
70217;BME280;65567;55.684;37.570;2023-05-14T10:00:56;99859.16;;;22.32;25.64
70217;BME280;65567;55.684;37.570;2023-05-14T10:03:24;99852.78;;;22.04;26.36
70217;BME280;65567;55.684;37.570;2023-05-14T10:05:55;99853.31;;;21.98;26.63
70217;BME280;65567;55.684;37.570;2023-05-14T10:08:29;99858.75;;;21.76;26.33
70217;BME280;65567;55.684;37.570;2023-05-14T10:11:00;99853.69;;;21.73;26.25
70217;BME280;65567;55.684;37.570;2023-05-14T10:13:36;99848.94;;;21.87;26.35
70217;BME280;65567;55.684;37.570;2023-05-14T10:16:15;99847.63;;;22.22;25.81
70217;BME280;65567;55.684;37.570;2023-05-14T10:18:45;99842.84;;;22.16;25.17
70217;BME280;65567;55.684;37.570;2023-05-14T10:21:14;99850.84;;;21.65;25.88
70217;BME280;65567;55.684;37.570;2023-05-14T10:23:40;99848.50;;;21.51;25.95
70217;BME280;65567;55.684;37.570;2023-05-14T10:26:07;99845.03;;;21.29;25.92
70217;BME280;65567;55.684;37.570;2023-05-14T10:28:34;99851.00;;;21.42;26.39
70217;BME280;65567;55.684;37.570;2023-05-14T10:31:01;99849.72;;;21.68;26.25
70217;BME280;65567;55.684;37.570;2023-05-14T10:33:27;99840.84;;;21.98;25.96
70217;BME280;65567;55.684;37.570;2023-05-14T10:36:04;99847.03;;;21.99;25.93
70217;BME280;65567;55.684;37.570;2023-05-14T10:38:33;99841.50;;;21.81;26.33
70217;BME280;65567;55.684;37.570;2023-05-14T10:41:05;99844.44;;;21.87;26.28
70217;BME280;65567;55.684;37.570;2023-05-14T10:43:41;99841.38;;;21.92;26.14
70217;BME280;65567;55.684;37.570;2023-05-14T10:46:09;99846.44;;;21.95;26.13
70217;BME280;65567;55.684;37.570;2023-05-14T10:48:36;99845.69;;;22.24;26.02
70217;BME280;65567;55.684;37.570;2023-05-14T10:51:06;99845.72;;;22.53;25.55
70217;BME280;65567;55.684;37.570;2023-05-14T10:53:40;99847.97;;;22.77;25.03
70217;BME280;65567;55.684;37.570;2023-05-14T10:56:11;99839.22;;;23.05;24.71
70217;BME280;65567;55.684;37.570;2023-05-14T10:58:39;99840.47;;;23.10;24.65
70217;BME280;65567;55.684;37.570;2023-05-14T11:01:06;99837.19;;;23.36;24.35
70217;BME280;65567;55.684;37.570;2023-05-14T11:03:39;99836.25;;;23.65;24.05
70217;BME280;65567;55.684;37.570;2023-05-14T11:06:06;99837.72;;;23.50;23.71
70217;BME280;65567;55.684;37.570;2023-05-14T11:08:32;99833.31;;;23.11;24.53
70217;BME280;65567;55.684;37.570;2023-05-14T11:10:58;99842.34;;;22.81;25.10
70217;BME280;65567;55.684;37.570;2023-05-14T11:13:27;99832.50;;;22.81;25.56
70217;BME280;65567;55.684;37.570;2023-05-14T11:15:53;99837.84;;;22.91;25.45
70217;BME280;65567;55.684;37.570;2023-05-14T11:18:33;99843.84;;;23.03;25.55
70217;BME280;65567;55.684;37.570;2023-05-14T11:21:03;99844.88;;;22.82;25.10
70217;BME280;65567;55.684;37.570;2023-05-14T11:23:29;99837.44;;;22.47;25.57
70217;BME280;65567;55.684;37.570;2023-05-14T11:25:55;99828.84;;;22.33;25.94
70217;BME280;65567;55.684;37.570;2023-05-14T11:28:25;99832.66;;;22.40;26.03
70217;BME280;65567;55.684;37.570;2023-05-14T11:30:52;99841.06;;;22.65;26.05
70217;BME280;65567;55.684;37.570;2023-05-14T11:33:19;99835.59;;;22.86;25.53
70217;BME280;65567;55.684;37.570;2023-05-14T11:35:48;99837.84;;;23.01;25.18
70217;BME280;65567;55.684;37.570;2023-05-14T11:38:18;99831.09;;;22.87;25.37
70217;BME280;65567;55.684;37.570;2023-05-14T11:40:54;99841.66;;;22.69;25.79
70217;BME280;65567;55.684;37.570;2023-05-14T11:43:21;99831.94;;;22.48;25.98
70217;BME280;65567;55.684;37.570;2023-05-14T11:45:53;99830.56;;;22.44;26.19
70217;BME280;65567;55.684;37.570;2023-05-14T11:48:20;99835.34;;;22.50;26.20
70217;BME280;65567;55.684;37.570;2023-05-14T11:50:47;99833.09;;;22.55;26.00
70217;BME280;65567;55.684;37.570;2023-05-14T11:53:28;99834.50;;;22.59;26.41
70217;BME280;65567;55.684;37.570;2023-05-14T11:55:54;99839.41;;;22.84;25.51
70217;BME280;65567;55.684;37.570;2023-05-14T11:58:22;99830.78;;;22.90;25.58
70217;BME280;65567;55.684;37.570;2023-05-14T12:00:52;99836.00;;;23.01;25.41
70217;BME280;65567;55.684;37.570;2023-05-14T12:03:19;99830.91;;;23.08;25.08
70217;BME280;65567;55.684;37.570;2023-05-14T12:05:59;99831.91;;;23.17;25.12
70217;BME280;65567;55.684;37.570;2023-05-14T12:08:29;99836.38;;;23.26;24.66
70217;BME280;65567;55.684;37.570;2023-05-14T12:10:58;99835.25;;;23.19;24.68
70217;BME280;65567;55.684;37.570;2023-05-14T12:13:26;99837.84;;;23.01;24.92
70217;BME280;65567;55.684;37.570;2023-05-14T12:15:54;99831.22;;;23.05;25.08
70217;BME280;65567;55.684;37.570;2023-05-14T12:18:23;99826.56;;;23.17;24.78
70217;BME280;65567;55.684;37.570;2023-05-14T12:20:49;99829.09;;;23.08;24.94
70217;BME280;65567;55.684;37.570;2023-05-14T12:23:25;99831.63;;;23.00;25.03
70217;BME280;65567;55.684;37.570;2023-05-14T12:25:51;99823.03;;;22.97;24.91
70217;BME280;65567;55.684;37.570;2023-05-14T12:28:17;99829.41;;;22.86;25.31
70217;BME280;65567;55.684;37.570;2023-05-14T12:30:47;99828.97;;;22.81;25.50
70217;BME280;65567;55.684;37.570;2023-05-14T12:33:13;99826.03;;;22.64;25.62
70217;BME280;65567;55.684;37.570;2023-05-14T12:35:39;99818.75;;;22.47;25.95
70217;BME280;65567;55.684;37.570;2023-05-14T12:38:05;99822.59;;;22.03;26.38
70217;BME280;65567;55.684;37.570;2023-05-14T12:40:31;99825.28;;;21.62;26.65
70217;BME280;65567;55.684;37.570;2023-05-14T12:42:57;99830.38;;;21.44;27.05
70217;BME280;65567;55.684;37.570;2023-05-14T12:45:23;99832.94;;;21.25;27.33
70217;BME280;65567;55.684;37.570;2023-05-14T12:47:48;99832.31;;;21.11;26.93
70217;BME280;65567;55.684;37.570;2023-05-14T12:50:15;99830.69;;;20.99;27.31
70217;BME280;65567;55.684;37.570;2023-05-14T12:52:41;99825.84;;;21.04;27.74
70217;BME280;65567;55.684;37.570;2023-05-14T12:55:07;99821.75;;;21.31;27.51
70217;BME280;65567;55.684;37.570;2023-05-14T12:57:33;99824.44;;;21.62;27.28
70217;BME280;65567;55.684;37.570;2023-05-14T12:59:59;99821.44;;;21.86;27.22
70217;BME280;65567;55.684;37.570;2023-05-14T13:02:25;99820.81;;;21.73;27.13